createdAt,value
2018-05-08T00:03:42.898Z,51.10
2018-05-08T00:08:33.793Z,51.10
2018-05-08T00:13:24.680Z,51.10
2018-05-08T00:18:15.613Z,51.10
2018-05-08T00:23:07.255Z,51.20
2018-05-08T00:27:58.177Z,51.20
2018-05-08T00:32:49.063Z,51.30
2018-05-08T00:37:39.970Z,51.30
2018-05-08T00:42:30.855Z,51.30
2018-05-08T00:47:21.731Z,51.30
2018-05-08T00:52:12.672Z,51.30
2018-05-08T00:57:10.479Z,51.40
2018-05-08T01:02:01.368Z,51.40
2018-05-08T01:06:52.265Z,52.10
2018-05-08T01:11:43.228Z,51.50
2018-05-08T01:16:34.063Z,51.50
2018-05-08T01:21:25.699Z,51.80
2018-05-08T01:26:17.335Z,51.70
2018-05-08T01:31:08.977Z,51.70
2018-05-08T01:35:59.892Z,51.70
2018-05-08T01:40:50.883Z,51.80
2018-05-08T01:45:42.537Z,51.80
2018-05-08T01:50:34.179Z,52.00
2018-05-08T01:55:25.878Z,52.00
2018-05-08T02:00:16.787Z,51.90
2018-05-08T02:05:07.703Z,52.00
2018-05-08T02:09:58.610Z,52.00
2018-05-08T02:14:49.514Z,51.90
2018-05-08T02:19:40.463Z,52.10
2018-05-08T02:24:31.409Z,53.00
2018-05-08T02:29:22.399Z,53.10
2018-05-08T02:34:13.310Z,53.20
2018-05-08T02:39:04.188Z,53.10
2018-05-08T02:43:55.825Z,53.30
2018-05-08T02:48:47.475Z,53.20
2018-05-08T02:53:38.433Z,53.20
2018-05-08T02:58:29.321Z,53.20
2018-05-08T03:03:20.212Z,53.30
2018-05-08T03:08:11.858Z,53.40
2018-05-08T03:13:02.803Z,53.30
2018-05-08T03:17:53.687Z,53.40
2018-05-08T03:22:45.319Z,53.50
2018-05-08T03:27:36.951Z,53.50
2018-05-08T03:32:28.590Z,53.50
2018-05-08T03:37:20.238Z,53.50
2018-05-08T03:42:11.219Z,53.40
2018-05-08T03:47:02.104Z,53.50
2018-05-08T03:51:53.022Z,53.60
2018-05-08T03:56:43.966Z,53.50
2018-05-08T04:01:47.427Z,53.60
2018-05-08T04:12:03.462Z,53.40
2018-05-08T04:16:54.362Z,53.60
2018-05-08T04:21:46.013Z,53.40
2018-05-08T04:26:36.903Z,53.40
2018-05-08T04:31:27.796Z,53.40
2018-05-08T04:36:18.702Z,53.30
2018-05-08T04:41:09.605Z,53.40
2018-05-08T04:46:00.503Z,53.40
2018-05-08T04:50:52.161Z,53.40
2018-05-08T04:55:43.058Z,53.30
2018-05-08T05:00:34.722Z,53.70
2018-05-08T05:05:25.619Z,53.70
2018-05-08T05:10:16.547Z,54.20
2018-05-08T05:15:08.183Z,54.10
2018-05-08T05:19:59.830Z,54.30
2018-05-08T05:24:51.471Z,54.60
2018-05-08T05:29:43.107Z,54.70
2018-05-08T05:34:34.841Z,55.30
2018-05-08T05:39:26.472Z,54.70
2018-05-08T05:44:18.185Z,55.10
2018-05-08T05:49:09.097Z,55.10
2018-05-08T05:53:59.996Z,55.40
2018-05-08T05:58:50.895Z,55.80
2018-05-08T06:03:41.806Z,56.50
2018-05-08T06:08:32.711Z,56.80
2018-05-08T06:13:24.347Z,57.50
2018-05-08T06:18:16.006Z,57.40
2018-05-08T06:23:06.895Z,57.40
2018-05-08T06:27:58.695Z,57.40
2018-05-08T06:32:49.594Z,57.40
2018-05-08T06:37:40.495Z,57.90
2018-05-08T06:42:31.387Z,57.80
2018-05-08T06:47:22.276Z,57.70
2018-05-08T06:52:13.186Z,57.30
2018-05-08T06:57:04.072Z,57.40
2018-05-08T07:01:55.017Z,57.40
2018-05-08T07:06:45.955Z,57.30
2018-05-08T07:11:36.851Z,57.20
2018-05-08T07:16:27.753Z,57.40
2018-05-08T07:21:18.703Z,57.40
2018-05-08T07:26:10.339Z,57.20
2018-05-08T07:31:01.260Z,57.20
2018-05-08T07:35:52.128Z,57.30
2018-05-08T07:40:43.834Z,57.20
2018-05-08T07:45:34.757Z,57.00
2018-05-08T07:50:25.668Z,57.10
2018-05-08T07:55:16.561Z,57.10
2018-05-08T08:00:07.462Z,57.00
2018-05-08T08:04:58.351Z,56.80
2018-05-08T08:09:49.988Z,56.40
2018-05-08T08:14:41.611Z,56.30
2018-05-08T08:19:32.509Z,56.10
2018-05-08T08:24:23.411Z,55.90
2018-05-08T08:29:14.325Z,55.30
2018-05-08T08:34:05.196Z,54.80
2018-05-08T08:38:56.834Z,54.20
2018-05-08T08:43:48.460Z,54.00
2018-05-08T08:48:39.347Z,53.90
2018-05-08T08:53:30.261Z,53.60
2018-05-08T08:58:22.055Z,53.30
2018-05-08T09:03:13.702Z,53.40
2018-05-08T09:08:04.609Z,53.40
2018-05-08T09:12:56.243Z,53.00
2018-05-08T09:17:47.889Z,52.00
2018-05-08T09:22:38.783Z,51.90
2018-05-08T09:27:29.704Z,51.80
2018-05-08T09:32:20.594Z,51.90
2018-05-08T09:37:11.491Z,52.00
2018-05-08T09:42:02.389Z,51.70
2018-05-08T09:46:53.279Z,51.80
2018-05-08T09:51:44.923Z,51.50
2018-05-08T09:56:36.555Z,50.30
2018-05-08T10:01:28.199Z,49.60
2018-05-08T10:06:19.101Z,49.50
2018-05-08T10:11:10.758Z,50.30
2018-05-08T10:16:01.720Z,50.20
2018-05-08T10:20:58.798Z,50.40
2018-05-08T10:25:49.686Z,50.40
2018-05-08T10:30:40.585Z,50.00
2018-05-08T10:35:31.494Z,50.00
2018-05-08T10:40:22.421Z,49.60
2018-05-08T10:45:13.313Z,49.60
2018-05-08T10:50:04.959Z,49.20
2018-05-08T10:54:56.606Z,49.20
2018-05-08T10:59:47.506Z,49.10
2018-05-08T11:04:39.128Z,48.40
2018-05-08T11:09:30.022Z,48.40
2018-05-08T11:14:21.647Z,48.40
2018-05-08T11:19:12.523Z,48.20
2018-05-08T11:24:04.143Z,48.00
2018-05-08T11:28:55.774Z,47.80
2018-05-08T11:33:47.417Z,46.80
2018-05-08T11:38:39.055Z,46.20
2018-05-08T11:43:30.671Z,46.10
2018-05-08T11:48:21.565Z,46.00
2018-05-08T11:53:12.473Z,45.80
2018-05-08T11:58:03.355Z,45.30
2018-05-08T12:02:54.976Z,44.30
2018-05-08T12:07:46.614Z,44.10
2018-05-08T12:12:38.260Z,43.10
2018-05-08T12:17:29.162Z,43.00
2018-05-08T12:22:20.805Z,42.10
2018-05-08T12:27:12.445Z,42.60
2018-05-08T12:32:04.078Z,43.00
2018-05-08T12:36:55.707Z,42.40
2018-05-08T12:41:47.332Z,41.50
2018-05-08T12:46:38.211Z,41.50
2018-05-08T12:51:29.126Z,40.70
2018-05-08T12:56:20.021Z,40.60
2018-05-08T13:01:10.919Z,40.70
2018-05-08T13:06:02.574Z,41.00
2018-05-08T13:10:53.501Z,41.00
2018-05-08T13:15:45.108Z,41.80
2018-05-08T13:20:36.739Z,41.50
2018-05-08T13:25:28.377Z,42.30
2018-05-08T13:30:19.999Z,42.00
2018-05-08T13:35:10.905Z,42.00
2018-05-08T13:40:01.800Z,42.20
2018-05-08T13:44:52.723Z,41.30
2018-05-08T13:49:43.630Z,42.10
2018-05-08T13:54:34.528Z,41.90
2018-05-08T13:59:25.431Z,42.00
2018-05-08T14:04:17.056Z,42.70
2018-05-08T14:09:08.705Z,43.30
2018-05-08T14:13:59.617Z,43.30
2018-05-08T14:18:51.302Z,43.10
2018-05-08T14:23:49.044Z,43.10
2018-05-08T14:28:39.948Z,43.20
2018-05-08T14:33:31.579Z,43.20
2018-05-08T14:38:23.281Z,43.10
2018-05-08T14:43:14.128Z,43.10
2018-05-08T14:48:05.777Z,44.60
2018-05-08T14:52:57.411Z,43.80
2018-05-08T14:57:49.083Z,44.20
2018-05-08T15:02:39.963Z,44.20
2018-05-08T15:07:31.621Z,44.40
2018-05-08T15:12:22.509Z,44.40
2018-05-08T15:17:14.135Z,43.80
2018-05-08T15:22:05.801Z,43.40
2018-05-08T15:26:56.699Z,43.40
2018-05-08T15:31:48.331Z,43.00
2018-05-08T15:36:40.025Z,43.30
2018-05-08T15:41:30.935Z,43.30
2018-05-08T15:46:22.574Z,43.80
2018-05-08T15:51:13.480Z,43.10
2018-05-08T15:56:04.381Z,43.30
2018-05-08T16:00:55.267Z,43.00
2018-05-08T16:05:46.929Z,43.50
2018-05-08T16:10:37.811Z,42.80
2018-05-08T16:15:28.714Z,42.80
2018-05-08T16:20:19.649Z,42.90
2018-05-08T16:25:10.550Z,42.90
2018-05-08T16:30:01.455Z,42.90
2018-05-08T16:34:52.359Z,43.10
2018-05-08T16:39:43.268Z,43.30
2018-05-08T16:44:34.151Z,43.40
2018-05-08T16:49:25.802Z,43.70
2018-05-08T16:54:16.731Z,43.70
2018-05-08T16:59:07.615Z,43.60
2018-05-08T17:03:58.517Z,43.50
2018-05-08T17:08:49.421Z,43.90
2018-05-08T17:13:40.345Z,43.70
2018-05-08T17:18:31.256Z,43.50
2018-05-08T17:23:22.151Z,43.90
2018-05-08T17:28:13.053Z,44.00
2018-05-08T17:33:03.954Z,44.00
2018-05-08T17:37:55.601Z,44.00
2018-05-08T17:42:46.505Z,44.00
2018-05-08T17:47:38.127Z,44.40
2018-05-08T17:52:29.030Z,44.30
2018-05-08T17:57:19.963Z,44.70
2018-05-08T18:02:10.869Z,44.70
2018-05-08T18:07:01.759Z,44.80
2018-05-08T18:11:52.660Z,44.70
2018-05-08T18:16:43.551Z,44.90
2018-05-08T18:21:35.201Z,45.00
2018-05-08T18:26:26.831Z,45.10
2018-05-08T18:31:18.481Z,45.00
2018-05-08T18:36:09.375Z,45.00
2018-05-08T18:41:01.050Z,45.30
2018-05-08T18:45:51.949Z,45.10
2018-05-08T18:50:43.581Z,45.10
2018-05-08T18:55:35.280Z,45.00
2018-05-08T19:00:26.191Z,45.00
2018-05-08T19:05:17.099Z,45.00
2018-05-08T19:10:07.989Z,45.00
2018-05-08T19:15:05.711Z,45.10
2018-05-08T19:20:02.785Z,45.10
2018-05-08T19:24:53.672Z,45.20
2018-05-08T19:29:50.790Z,45.10
2018-05-08T19:34:47.855Z,45.20
2018-05-08T19:39:38.756Z,45.90
2018-05-08T19:44:29.655Z,45.40
2018-05-08T19:49:20.550Z,45.50
2018-05-08T19:54:11.485Z,45.50
2018-05-08T19:59:02.437Z,45.60
2018-05-08T20:03:54.194Z,46.10
2018-05-08T20:08:45.234Z,46.00
2018-05-08T20:13:36.972Z,46.30
2018-05-08T20:18:27.865Z,46.30
2018-05-08T20:23:18.798Z,45.80
2018-05-08T20:28:09.692Z,46.50
2018-05-08T20:33:00.579Z,46.50
2018-05-08T20:37:52.259Z,46.60
2018-05-08T20:42:43.165Z,46.60
2018-05-08T20:47:34.814Z,46.70
2018-05-08T20:52:25.806Z,46.60
2018-05-08T20:57:16.758Z,46.70
2018-05-08T21:02:07.659Z,46.70
2018-05-08T21:06:58.614Z,46.80
2018-05-08T21:11:49.518Z,46.90
2018-05-08T21:16:40.403Z,46.90
2018-05-08T21:21:31.400Z,47.10
2018-05-08T21:26:22.303Z,47.20
2018-05-08T21:31:13.935Z,47.50
2018-05-08T21:36:04.971Z,47.40
2018-05-08T21:40:55.863Z,47.40
2018-05-08T21:45:46.761Z,47.50
2018-05-08T21:50:37.649Z,47.60
2018-05-08T21:55:28.594Z,47.70
2018-05-08T22:00:19.489Z,47.80
2018-05-08T22:05:10.453Z,47.90
2018-05-08T22:10:01.335Z,48.10
2018-05-08T22:14:52.972Z,48.40
2018-05-08T22:19:43.864Z,48.30
2018-05-08T22:24:34.791Z,48.40
2018-05-08T22:29:25.725Z,48.50
2018-05-08T22:34:17.384Z,48.60
2018-05-08T22:39:08.325Z,48.50
2018-05-08T22:43:59.327Z,48.80
2018-05-08T22:48:50.225Z,48.80
2018-05-08T22:53:41.172Z,48.90
2018-05-08T22:58:32.096Z,49.00
2018-05-08T23:03:22.999Z,49.00
2018-05-08T23:08:13.893Z,49.10
2018-05-08T23:13:04.857Z,49.10
2018-05-08T23:17:55.765Z,49.20
2018-05-08T23:22:46.676Z,49.20
2018-05-08T23:27:37.593Z,49.30
2018-05-08T23:32:28.493Z,49.40
2018-05-08T23:37:19.388Z,49.40
2018-05-08T23:42:11.032Z,49.60
2018-05-08T23:47:01.935Z,49.50
2018-05-08T23:51:53.565Z,49.60
2018-05-08T23:56:44.474Z,49.60
